Time;durP1;ratioP1;P1;durP2;ratioP2;P2;SDS_P1;SDS_P2;PMS_P1;PMS_P2;Temp;Humidity;BMP_temperature;BMP_pressure;BME280_temperature;BME280_humidity;BME280_pressure;Samples;Min_cycle;Max_cycle;Signal;HPM_P1;HPM_P2
2022/07/03 00:00:08;;;;;;;17.23;2.38;;;15.80;99.90;;;;;;5057272;28;20193;-76
2022/07/03 00:02:39;;;;;;;21.05;2.67;;;15.90;99.90;;;;;;5054047;28;20198;-79
2022/07/03 00:05:10;;;;;;;12.38;2.08;;;15.90;99.90;;;;;;5056237;28;20263;-76
2022/07/03 00:07:41;;;;;;;12.85;1.90;;;15.90;99.90;;;;;;5055979;28;20185;-76
2022/07/03 00:10:12;;;;;;;23.73;2.65;;;16.00;99.90;;;;;;5056673;28;20194;-77
2022/07/03 00:12:45;;;;;;;12.10;1.88;;;16.10;99.90;;;;;;5055361;28;20223;-77
2022/07/03 00:15:16;;;;;;;18.45;2.03;;;16.10;99.90;;;;;;5055129;28;20754;-77
2022/07/03 00:17:47;;;;;;;13.40;2.03;;;16.10;99.90;;;;;;5054777;28;20201;-83
2022/07/03 00:20:17;;;;;;;15.55;1.80;;;16.10;99.90;;;;;;5054478;28;20186;-76
2022/07/03 00:22:49;;;;;;;12.38;1.80;;;16.10;99.90;;;;;;5053012;28;20194;-76
2022/07/03 00:25:21;;;;;;;14.98;1.92;;;16.10;99.90;;;;;;5055667;28;20185;-80
2022/07/03 00:27:54;;;;;;;18.20;2.65;;;16.10;99.90;;;;;;5052078;28;20274;-76
2022/07/03 00:30:24;;;;;;;24.70;3.13;;;16.10;99.90;;;;;;5055239;28;20209;-78
2022/07/03 00:32:56;;;;;;;25.52;3.35;;;16.10;99.90;;;;;;5055997;28;21417;-81
2022/07/03 00:35:27;;;;;;;19.90;2.95;;;16.20;99.90;;;;;;5057065;28;20228;-77
2022/07/03 00:37:58;;;;;;;19.52;2.47;;;16.20;99.90;;;;;;5057491;28;20668;-76
2022/07/03 00:40:32;;;;;;;19.35;2.63;;;16.20;99.90;;;;;;5054611;28;20213;-76
2022/07/03 00:43:06;;;;;;;14.80;2.10;;;16.20;99.90;;;;;;5056357;28;20727;-77
2022/07/03 00:45:40;;;;;;;11.68;2.00;;;16.20;99.90;;;;;;5056319;28;20224;-79
2022/07/03 00:48:11;;;;;;;15.23;2.13;;;16.30;99.90;;;;;;5052358;28;20200;-76
2022/07/03 00:50:47;;;;;;;13.90;2.60;;;16.30;99.90;;;;;;5052650;28;20193;-80
2022/07/03 00:53:22;;;;;;;20.27;2.55;;;16.40;99.90;;;;;;5052482;28;20213;-76
2022/07/03 00:55:55;;;;;;;20.73;2.88;;;16.40;99.90;;;;;;5047857;28;20194;-75
2022/07/03 00:58:28;;;;;;;17.73;2.20;;;16.50;99.90;;;;;;5043546;28;20248;-75
2022/07/03 01:00:59;;;;;;;13.70;2.10;;;16.50;99.90;;;;;;5053369;28;20200;-76
2022/07/03 01:03:31;;;;;;;15.57;2.08;;;16.60;99.90;;;;;;5052689;28;20660;-76
2022/07/03 01:06:06;;;;;;;18.23;2.40;;;16.60;99.90;;;;;;5055005;28;20190;-76
2022/07/03 01:08:43;;;;;;;20.35;2.13;;;16.50;99.90;;;;;;5049917;28;20185;-77
2022/07/03 01:11:27;;;;;;;18.58;2.42;;;16.50;99.90;;;;;;5048931;28;20288;-78
2022/07/03 01:14:14;;;;;;;19.80;2.97;;;16.50;99.90;;;;;;5053290;28;20360;-75
2022/07/03 01:16:54;;;;;;;20.35;2.90;;;16.60;99.90;;;;;;5048317;28;20546;-75
2022/07/03 01:19:41;;;;;;;12.38;2.10;;;16.60;99.90;;;;;;5050736;28;20634;-76
2022/07/03 01:22:32;;;;;;;14.80;2.20;;;16.70;99.90;;;;;;5048205;28;20193;-75
2022/07/03 01:25:26;;;;;;;17.17;2.70;;;16.70;99.90;;;;;;5053389;28;20243;-75
2022/07/03 01:28:10;;;;;;;14.80;2.78;;;16.70;99.90;;;;;;5053174;28;20193;-76
2022/07/03 01:30:43;;;;;;;18.77;2.55;;;16.70;99.90;;;;;;5049750;28;20728;-76
2022/07/03 01:33:20;;;;;;;18.60;2.80;;;16.70;99.90;;;;;;5052731;28;20217;-76
2022/07/03 01:36:01;;;;;;;14.55;1.98;;;16.70;99.90;;;;;;5050582;28;20221;-77
2022/07/03 01:38:33;;;;;;;16.50;2.67;;;16.70;99.90;;;;;;5052196;28;20189;-77
2022/07/03 01:41:06;;;;;;;12.05;1.95;;;16.70;99.90;;;;;;5053979;28;20201;-77
2022/07/03 01:43:40;;;;;;;13.90;1.80;;;16.70;99.90;;;;;;5050310;28;20212;-76
2022/07/03 01:46:13;;;;;;;12.68;1.95;;;16.70;99.90;;;;;;5049361;28;20201;-76
2022/07/03 01:48:46;;;;;;;12.40;1.67;;;16.70;99.90;;;;;;5051615;28;20204;-76
2022/07/03 01:51:18;;;;;;;12.88;2.00;;;16.60;99.90;;;;;;5050505;28;20193;-75
2022/07/03 01:53:51;;;;;;;12.20;1.60;;;16.60;99.90;;;;;;5044602;28;20225;-75
2022/07/03 01:56:22;;;;;;;7.40;1.42;;;16.60;99.90;;;;;;5049884;28;20197;-76
2022/07/03 01:58:55;;;;;;;11.48;1.65;;;16.50;99.90;;;;;;5050397;28;20189;-76
2022/07/03 02:01:28;;;;;;;11.18;1.95;;;16.50;99.90;;;;;;5044506;28;20266;-78
2022/07/03 02:04:06;;;;;;;13.38;2.03;;;16.50;99.90;;;;;;5049623;28;20197;-76
2022/07/03 02:06:43;;;;;;;12.82;2.30;;;16.50;99.90;;;;;;5052393;28;20197;-76
2022/07/03 02:09:16;;;;;;;13.18;2.05;;;16.60;99.90;;;;;;5052177;28;20204;-76
2022/07/03 02:11:48;;;;;;;9.60;1.63;;;16.60;99.90;;;;;;5048981;28;20197;-76
2022/07/03 02:14:24;;;;;;;17.27;2.55;;;16.60;99.90;;;;;;5046694;28;20296;-76
2022/07/03 02:17:05;;;;;;;11.20;1.77;;;16.70;99.90;;;;;;5046225;28;20548;-78
2022/07/03 02:19:46;;;;;;;16.42;2.28;;;16.70;99.90;;;;;;5049515;28;20224;-75
2022/07/03 02:22:19;;;;;;;19.67;2.33;;;16.80;99.90;;;;;;5049499;28;20610;-75
2022/07/03 02:24:50;;;;;;;18.60;2.80;;;16.80;99.90;;;;;;5049950;28;20205;-77
2022/07/03 02:27:28;;;;;;;12.93;2.50;;;16.80;99.90;;;;;;5049609;28;20198;-75
2022/07/03 02:30:06;;;;;;;14.43;2.10;;;16.80;99.90;;;;;;5048857;28;20192;-77
2022/07/03 02:32:41;;;;;;;16.25;2.28;;;16.60;99.90;;;;;;5052481;28;20255;-77
2022/07/03 02:35:15;;;;;;;13.18;2.25;;;16.50;99.90;;;;;;5050530;28;20212;-76
2022/07/03 02:37:53;;;;;;;24.60;2.70;;;16.40;99.90;;;;;;5052130;28;20659;-76
2022/07/03 02:40:29;;;;;;;18.52;2.88;;;16.30;99.90;;;;;;5051500;28;20201;-77
2022/07/03 02:43:13;;;;;;;17.15;2.10;;;16.30;99.90;;;;;;5052141;28;20190;-77
2022/07/03 02:45:55;;;;;;;20.20;2.40;;;16.30;99.90;;;;;;5052706;28;20192;-77
2022/07/03 02:48:34;;;;;;;18.58;2.95;;;16.30;99.90;;;;;;5052387;28;20272;-77
2022/07/03 02:51:12;;;;;;;15.93;2.40;;;16.20;99.90;;;;;;5045850;28;20549;-81
2022/07/03 02:53:58;;;;;;;21.42;2.63;;;16.00;99.90;;;;;;5045437;28;20217;-80
2022/07/03 02:56:37;;;;;;;18.98;2.75;;;15.90;99.90;;;;;;5046695;28;20190;-77
2022/07/03 02:59:16;;;;;;;16.67;2.65;;;15.80;99.90;;;;;;5052372;28;20205;-76
2022/07/03 03:01:57;;;;;;;18.52;2.60;;;15.70;99.90;;;;;;5046421;28;20197;-83
2022/07/03 03:04:33;;;;;;;16.25;2.20;;;15.60;99.90;;;;;;5046938;28;20189;-84
2022/07/03 03:07:10;;;;;;;21.23;2.30;;;15.50;99.90;;;;;;5052627;28;20185;-81
2022/07/03 03:09:45;;;;;;;22.10;2.53;;;15.50;99.90;;;;;;5047320;28;20193;-80
2022/07/03 03:12:17;;;;;;;17.25;2.92;;;15.50;99.90;;;;;;5049003;28;20185;-80
2022/07/03 03:14:59;;;;;;;18.73;2.55;;;15.50;99.90;;;;;;5049416;28;20221;-81
2022/07/03 03:17:42;;;;;;;21.35;3.10;;;15.50;99.90;;;;;;5050451;28;20193;-80
2022/07/03 03:20:18;;;;;;;25.95;3.20;;;15.40;99.90;;;;;;5045843;28;20225;-81
2022/07/03 03:23:21;;;;;;;22.02;3.75;;;15.40;99.90;;;;;;5051869;28;20190;-79
2022/07/03 03:25:53;;;;;;;21.88;2.90;;;15.40;99.90;;;;;;5044636;28;20579;-78
2022/07/03 03:28:24;;;;;;;25.90;3.58;;;15.30;99.90;;;;;;5050321;28;20185;-79
2022/07/03 03:30:54;;;;;;;24.08;3.10;;;15.20;99.90;;;;;;5045987;28;20193;-77
2022/07/03 03:33:27;;;;;;;26.25;3.30;;;15.20;99.90;;;;;;5051657;28;20225;-77
2022/07/03 03:35:58;;;;;;;19.70;2.83;;;15.20;99.90;;;;;;5050471;28;20221;-78
2022/07/03 03:38:29;;;;;;;22.13;2.88;;;15.20;99.90;;;;;;5050186;28;20189;-75
2022/07/03 03:40:59;;;;;;;24.45;2.88;;;15.20;99.90;;;;;;5051615;28;20209;-76
2022/07/03 03:43:30;;;;;;;18.98;2.92;;;15.10;99.90;;;;;;5051833;28;20190;-79
2022/07/03 03:46:01;;;;;;;27.00;3.60;;;15.20;99.90;;;;;;5051651;28;20186;-77
2022/07/03 03:48:35;;;;;;;20.08;3.22;;;15.20;99.90;;;;;;5051111;28;20190;-77
2022/07/03 03:51:07;;;;;;;27.30;3.22;;;15.20;99.90;;;;;;5052104;28;20190;-80
2022/07/03 03:53:37;;;;;;;20.33;3.05;;;15.20;99.90;;;;;;5052166;28;20237;-81
2022/07/03 03:56:14;;;;;;;22.83;3.22;;;15.20;99.90;;;;;;5048167;28;20186;-78
2022/07/03 03:58:45;;;;;;;25.23;3.45;;;15.20;99.90;;;;;;5048945;28;20667;-77
2022/07/03 04:01:16;;;;;;;13.63;2.80;;;15.20;99.90;;;;;;5048064;28;20542;-75
2022/07/03 04:03:49;;;;;;;23.40;2.75;;;15.20;99.90;;;;;;5049003;28;20217;-79
2022/07/03 04:06:21;;;;;;;22.92;2.70;;;15.10;99.90;;;;;;5044730;28;20216;-80
2022/07/03 04:08:52;;;;;;;20.92;2.58;;;15.10;99.90;;;;;;5047181;28;20182;-81
2022/07/03 04:11:22;;;;;;;21.63;3.75;;;15.10;99.90;;;;;;5049036;28;20689;-79
2022/07/03 04:13:53;;;;;;;31.52;3.90;;;15.10;99.90;;;;;;5047979;28;20217;-79
2022/07/03 04:16:24;;;;;;;25.33;3.17;;;15.10;99.90;;;;;;5045959;28;20201;-80
2022/07/03 04:18:56;;;;;;;23.85;3.08;;;15.00;99.90;;;;;;5045926;28;20245;-79
2022/07/03 04:21:27;;;;;;;23.90;3.03;;;15.00;99.90;;;;;;5051323;28;20198;-82
2022/07/03 04:23:57;;;;;;;15.38;2.30;;;15.00;99.90;;;;;;5054427;28;20570;-80
2022/07/03 04:26:28;;;;;;;21.00;2.95;;;15.00;99.90;;;;;;5054124;28;20209;-79
2022/07/03 04:28:59;;;;;;;21.67;2.58;;;15.00;99.90;;;;;;5054578;28;20599;-78
2022/07/03 04:31:30;;;;;;;19.13;2.53;;;15.00;99.90;;;;;;5052269;28;20629;-78
2022/07/03 04:34:02;;;;;;;20.30;2.83;;;15.00;99.90;;;;;;5054482;28;20221;-79
2022/07/03 04:36:33;;;;;;;22.33;2.70;;;15.10;99.90;;;;;;5053195;28;20237;-78
2022/07/03 04:39:03;;;;;;;18.48;2.90;;;15.10;99.90;;;;;;5052960;28;20190;-79
2022/07/03 04:41:34;;;;;;;28.48;3.35;;;15.10;99.90;;;;;;5051565;28;20206;-78
2022/07/03 04:44:05;;;;;;;24.48;3.25;;;15.10;99.90;;;;;;5052563;28;20691;-78
2022/07/03 04:46:35;;;;;;;23.05;2.80;;;15.10;99.90;;;;;;5049775;28;20285;-80
2022/07/03 04:49:08;;;;;;;18.17;2.53;;;15.10;99.90;;;;;;5055043;28;20186;-79
2022/07/03 04:51:39;;;;;;;21.90;2.55;;;15.00;99.90;;;;;;5054511;28;20190;-80
2022/07/03 04:54:09;;;;;;;15.88;2.72;;;14.90;99.90;;;;;;5048876;28;20217;-80
2022/07/03 04:56:40;;;;;;;19.33;2.80;;;14.90;99.90;;;;;;5054354;28;20201;-83
2022/07/03 04:59:10;;;;;;;16.73;2.85;;;14.80;99.90;;;;;;5054637;28;20196;-77
2022/07/03 05:01:41;;;;;;;16.83;2.05;;;14.80;99.90;;;;;;5045107;28;20190;-79
2022/07/03 05:04:14;;;;;;;19.17;2.10;;;14.80;99.90;;;;;;5051210;28;20243;-78
2022/07/03 05:06:44;;;;;;;20.00;2.10;;;14.80;99.90;;;;;;5051594;28;20197;-77
2022/07/03 05:09:15;;;;;;;16.88;2.33;;;14.70;99.90;;;;;;5050224;28;20687;-79
2022/07/03 05:11:45;;;;;;;17.13;2.42;;;14.70;99.90;;;;;;5054265;28;20656;-80
2022/07/03 05:14:16;;;;;;;16.98;1.95;;;14.80;99.90;;;;;;5050271;28;20212;-79
2022/07/03 05:16:47;;;;;;;13.77;2.25;;;14.80;99.90;;;;;;5049503;28;20186;-80
2022/07/03 05:19:19;;;;;;;16.10;2.20;;;14.80;99.90;;;;;;5048000;28;20193;-78
2022/07/03 05:21:50;;;;;;;13.32;2.45;;;14.90;99.90;;;;;;5050974;28;20248;-78
2022/07/03 05:24:21;;;;;;;14.85;2.30;;;14.90;99.90;;;;;;5052891;28;20193;-80
2022/07/03 05:26:51;;;;;;;19.30;2.67;;;14.90;99.90;;;;;;5052904;28;20201;-76
2022/07/03 05:29:22;;;;;;;14.95;2.55;;;15.00;99.90;;;;;;5051867;28;20689;-77
2022/07/03 05:31:52;;;;;;;17.92;2.10;;;15.00;99.90;;;;;;5054937;28;20190;-78
2022/07/03 05:34:25;;;;;;;14.27;2.00;;;14.90;99.90;;;;;;5053304;28;20226;-77
2022/07/03 05:36:56;;;;;;;14.80;1.70;;;14.80;99.90;;;;;;5047215;28;20597;-78
2022/07/03 05:39:37;;;;;;;15.95;2.00;;;14.80;99.90;;;;;;5052275;28;20285;-78
2022/07/03 05:42:08;;;;;;;17.95;2.22;;;14.80;99.90;;;;;;5051699;28;20228;-77
2022/07/03 05:44:39;;;;;;;16.52;2.17;;;14.80;99.90;;;;;;5054403;28;20194;-78
2022/07/03 05:47:10;;;;;;;17.27;2.22;;;14.90;99.90;;;;;;5053675;28;20202;-76
2022/07/03 05:49:42;;;;;;;11.20;1.98;;;14.80;99.90;;;;;;5052432;28;20198;-83
2022/07/03 05:52:13;;;;;;;13.85;2.00;;;14.90;99.90;;;;;;5054590;28;20190;-77
2022/07/03 05:54:43;;;;;;;14.10;2.00;;;14.80;99.90;;;;;;5046844;28;20707;-77
2022/07/03 05:57:14;;;;;;;15.45;2.45;;;14.80;99.90;;;;;;5053519;28;20197;-76
2022/07/03 05:59:45;;;;;;;16.75;2.40;;;14.80;99.90;;;;;;5052367;28;20232;-77
2022/07/03 06:02:17;;;;;;;17.92;2.22;;;14.80;99.90;;;;;;5051906;28;20198;-78
2022/07/03 06:04:49;;;;;;;18.48;2.70;;;14.90;99.90;;;;;;5052515;28;20201;-79
2022/07/03 06:07:20;;;;;;;11.77;2.10;;;14.90;99.90;;;;;;5049801;28;20198;-79
2022/07/03 06:09:51;;;;;;;15.52;2.33;;;14.90;99.90;;;;;;5044633;28;20210;-77
2022/07/03 06:12:22;;;;;;;16.85;2.40;;;14.90;99.90;;;;;;5052422;28;20650;-79
2022/07/03 06:14:52;;;;;;;17.50;2.40;;;14.90;99.90;;;;;;5053513;28;20213;-77
2022/07/03 06:17:23;;;;;;;18.08;2.50;;;14.90;99.90;;;;;;5051663;28;20193;-77
2022/07/03 06:19:56;;;;;;;16.85;2.08;;;14.90;99.90;;;;;;5054452;28;20201;-78
2022/07/03 06:22:26;;;;;;;22.08;2.83;;;14.90;99.90;;;;;;5052596;28;20205;-78
2022/07/03 06:24:57;;;;;;;15.93;2.33;;;14.90;99.90;;;;;;5053792;28;20194;-79
2022/07/03 06:27:28;;;;;;;17.23;2.53;;;14.90;99.90;;;;;;5050425;28;20607;-78
2022/07/03 06:29:59;;;;;;;25.95;3.10;;;15.00;99.90;;;;;;5053393;28;20201;-80
2022/07/03 06:32:29;;;;;;;22.08;2.40;;;14.90;99.90;;;;;;5053985;28;20221;-78
2022/07/03 06:35:02;;;;;;;20.20;2.80;;;14.90;99.90;;;;;;5046409;28;20229;-79
2022/07/03 06:37:32;;;;;;;19.27;3.30;;;14.90;99.90;;;;;;5048718;28;20262;-80
2022/07/03 06:40:03;;;;;;;27.38;3.40;;;14.90;99.90;;;;;;5053209;28;20205;-78
2022/07/03 06:42:34;;;;;;;19.33;2.88;;;14.90;99.90;;;;;;5043267;28;20190;-79
2022/07/03 06:45:04;;;;;;;19.95;2.80;;;14.90;99.90;;;;;;5047915;28;20292;-78
2022/07/03 06:47:40;;;;;;;23.70;2.60;;;14.90;99.90;;;;;;5046980;28;20202;-80
2022/07/03 06:50:14;;;;;;;18.17;2.13;;;14.80;99.90;;;;;;5048490;28;20671;-80
2022/07/03 06:52:44;;;;;;;17.27;2.30;;;14.80;99.90;;;;;;5048324;28;20221;-79
2022/07/03 06:55:15;;;;;;;16.77;2.20;;;14.80;99.90;;;;;;5049116;28;20225;-79
2022/07/03 06:57:46;;;;;;;21.48;2.90;;;14.70;99.90;;;;;;5043404;28;20206;-78
2022/07/03 07:00:17;;;;;;;14.15;2.00;;;14.70;99.90;;;;;;5052261;28;20553;-80
2022/07/03 07:02:48;;;;;;;24.55;2.55;;;14.70;99.90;;;;;;5047790;28;20284;-79
2022/07/03 07:05:20;;;;;;;21.10;2.42;;;14.70;99.90;;;;;;5047696;28;20201;-77
2022/07/03 07:07:51;;;;;;;19.05;2.50;;;14.70;99.90;;;;;;5050040;28;20534;-80
2022/07/03 07:10:22;;;;;;;23.67;2.67;;;14.70;99.90;;;;;;5053422;28;20182;-79
2022/07/03 07:12:53;;;;;;;18.50;2.65;;;14.70;99.90;;;;;;5050185;28;20572;-79
2022/07/03 07:15:25;;;;;;;20.17;2.80;;;14.70;99.90;;;;;;5052550;28;20232;-80
2022/07/03 07:17:56;;;;;;;21.85;2.17;;;14.70;99.90;;;;;;5048892;28;20198;-79
2022/07/03 07:20:28;;;;;;;14.57;1.88;;;14.60;99.90;;;;;;5052881;28;20606;-79
2022/07/03 07:22:59;;;;;;;17.85;2.35;;;14.60;99.90;;;;;;5050590;28;20205;-77
2022/07/03 07:25:30;;;;;;;24.95;2.72;;;14.60;99.90;;;;;;5044657;28;20194;-77
2022/07/03 07:28:00;;;;;;;23.60;3.25;;;14.60;99.90;;;;;;5049952;28;20196;-78
2022/07/03 07:30:31;;;;;;;20.58;3.03;;;14.60;99.90;;;;;;5051296;28;20563;-76
2022/07/03 07:33:02;;;;;;;18.25;2.47;;;14.60;99.90;;;;;;5050033;28;20198;-78
2022/07/03 07:35:34;;;;;;;14.07;2.08;;;14.60;99.90;;;;;;5045799;28;20226;-79
2022/07/03 07:38:05;;;;;;;23.80;2.30;;;14.50;99.90;;;;;;5049993;28;20232;-79
2022/07/03 07:40:36;;;;;;;16.17;2.53;;;14.50;99.90;;;;;;5044959;28;20205;-80
2022/07/03 07:43:07;;;;;;;19.08;2.45;;;14.60;99.90;;;;;;5051706;28;20194;-78
2022/07/03 07:45:38;;;;;;;18.50;2.30;;;14.60;99.90;;;;;;5051374;28;20280;-79
2022/07/03 07:48:09;;;;;;;17.10;2.50;;;14.60;99.90;;;;;;5050492;28;20197;-78
2022/07/03 07:50:41;;;;;;;15.00;2.00;;;14.60;99.90;;;;;;5049283;28;20197;-80
2022/07/03 07:53:12;;;;;;;14.90;1.92;;;14.60;99.90;;;;;;5051511;28;20193;-78
2022/07/03 07:55:42;;;;;;;15.68;1.95;;;14.60;99.90;;;;;;5050761;28;20209;-78
2022/07/03 07:58:13;;;;;;;19.17;2.53;;;14.70;99.90;;;;;;5051630;28;20193;-79
2022/07/03 08:05:35;;;;;;;20.38;2.40;;;14.70;99.90;;;;;;5053669;28;20201;-79
2022/07/03 08:06:23;;;;;;;18.52;2.75;;;14.80;99.90;;;;;;5055500;28;20205;-81
2022/07/03 08:08:53;;;;;;;13.55;1.90;;;14.80;99.90;;;;;;5055074;28;20208;-79
2022/07/03 08:11:24;;;;;;;20.15;2.55;;;14.80;99.90;;;;;;5056429;28;20186;-78
2022/07/03 08:13:55;;;;;;;18.45;2.20;;;14.80;99.90;;;;;;5055386;28;20834;-79
2022/07/03 08:16:25;;;;;;;15.63;2.20;;;14.70;99.90;;;;;;5055110;28;20222;-78
2022/07/03 08:18:56;;;;;;;20.65;2.78;;;14.60;99.90;;;;;;5047597;28;20692;-79
2022/07/03 08:21:29;;;;;;;12.57;2.05;;;14.50;99.90;;;;;;5052840;28;20208;-79
2022/07/03 08:23:59;;;;;;;23.85;2.60;;;14.50;99.90;;;;;;5053518;28;20206;-78
2022/07/03 08:26:30;;;;;;;18.50;2.28;;;14.50;99.90;;;;;;5055010;28;20205;-78
2022/07/03 08:29:01;;;;;;;20.52;2.42;;;14.50;99.90;;;;;;5051755;28;20603;-80
2022/07/03 08:31:31;;;;;;;18.35;2.33;;;14.50;99.90;;;;;;5050909;28;20645;-80
2022/07/03 08:34:02;;;;;;;13.15;2.28;;;14.40;99.90;;;;;;5045915;28;20214;-79
2022/07/03 08:36:34;;;;;;;14.73;2.33;;;14.50;99.90;;;;;;5054906;28;20602;-79
2022/07/03 08:39:05;;;;;;;9.32;1.63;;;14.50;99.90;;;;;;5054317;28;20201;-78
2022/07/03 08:41:39;;;;;;;14.13;1.95;;;14.50;99.90;;;;;;5046820;28;20530;-78
2022/07/03 08:44:11;;;;;;;12.20;1.90;;;14.50;99.90;;;;;;5052341;28;20202;-78
2022/07/03 08:46:42;;;;;;;10.93;2.03;;;14.50;99.90;;;;;;5044363;28;20197;-79
2022/07/03 08:49:13;;;;;;;7.35;1.50;;;14.50;99.90;;;;;;5051417;28;20209;-77
2022/07/03 08:51:48;;;;;;;11.10;1.45;;;14.50;99.90;;;;;;5051455;28;20213;-79
2022/07/03 08:54:19;;;;;;;16.13;2.85;;;14.40;99.90;;;;;;5054342;28;20213;-80
2022/07/03 08:56:51;;;;;;;17.17;3.75;;;14.30;99.90;;;;;;5053702;28;20578;-79
2022/07/03 08:59:23;;;;;;;12.60;2.75;;;14.40;99.90;;;;;;5049749;28;20190;-79
2022/07/03 09:01:55;;;;;;;10.70;2.10;;;14.30;99.90;;;;;;5052371;28;20201;-80
2022/07/03 09:04:26;;;;;;;17.30;2.78;;;14.30;99.90;;;;;;5052651;28;20204;-79
2022/07/03 09:06:59;;;;;;;15.73;2.65;;;14.40;99.90;;;;;;5051441;28;20205;-79
2022/07/03 09:09:30;;;;;;;18.70;2.38;;;14.40;99.90;;;;;;5047135;28;20198;-79
2022/07/03 09:12:02;;;;;;;14.23;2.03;;;14.50;99.90;;;;;;5049124;28;20194;-79
2022/07/03 09:14:33;;;;;;;13.88;2.20;;;14.50;99.90;;;;;;5051160;28;20194;-80
2022/07/03 09:17:04;;;;;;;13.27;1.98;;;14.50;99.90;;;;;;5052025;28;20225;-79
2022/07/03 09:19:46;;;;;;;19.85;2.25;;;14.60;99.90;;;;;;5054495;28;20193;-80
2022/07/03 09:22:29;;;;;;;22.40;2.90;;;14.60;99.90;;;;;;5051406;28;20239;-80
2022/07/03 09:25:08;;;;;;;14.02;2.10;;;14.60;99.90;;;;;;5049062;28;20202;-80
2022/07/03 09:27:40;;;;;;;13.48;2.13;;;14.60;99.90;;;;;;5054105;28;20221;-79
2022/07/03 09:30:12;;;;;;;16.08;1.90;;;14.60;99.90;;;;;;5052098;28;20563;-81
2022/07/03 09:32:46;;;;;;;8.20;1.90;;;14.60;99.90;;;;;;5052417;28;20198;-81
2022/07/03 09:35:21;;;;;;;14.50;2.05;;;14.60;99.90;;;;;;5051202;28;20232;-80
2022/07/03 09:37:59;;;;;;;14.63;2.53;;;14.60;99.90;;;;;;5049635;28;20320;-81
2022/07/03 09:40:30;;;;;;;23.75;2.67;;;14.60;99.90;;;;;;5049111;28;20212;-81
2022/07/03 09:43:06;;;;;;;15.88;2.25;;;14.60;99.90;;;;;;5053783;28;20672;-80
2022/07/03 09:45:57;;;;;;;21.13;2.63;;;14.70;99.90;;;;;;5046301;28;20201;-81
2022/07/03 09:48:34;;;;;;;24.98;2.72;;;14.70;99.90;;;;;;5051603;28;20688;-80
2022/07/03 09:51:19;;;;;;;17.17;2.20;;;14.70;99.90;;;;;;5053702;28;20661;-82
2022/07/03 09:53:59;;;;;;;21.02;2.60;;;14.80;99.90;;;;;;5047345;28;20200;-81
2022/07/03 09:56:31;;;;;;;19.00;2.75;;;14.80;99.90;;;;;;5052898;28;20213;-79
2022/07/03 09:59:10;;;;;;;19.20;2.60;;;14.80;99.90;;;;;;5042965;28;20187;-80
2022/07/03 10:01:42;;;;;;;16.17;2.45;;;14.80;99.90;;;;;;5050568;28;20220;-81
2022/07/03 10:04:15;;;;;;;9.20;1.83;;;14.90;99.90;;;;;;5052639;28;20209;-80
2022/07/03 10:06:56;;;;;;;20.42;3.25;;;14.80;99.90;;;;;;5053741;28;20201;-78
2022/07/03 10:09:30;;;;;;;17.98;2.10;;;14.80;99.90;;;;;;5045994;28;20274;-81
2022/07/03 10:12:01;;;;;;;14.63;2.22;;;14.70;99.90;;;;;;5053146;28;20190;-81
2022/07/03 10:14:33;;;;;;;19.55;2.10;;;14.60;99.90;;;;;;5046816;28;20197;-81
2022/07/03 10:17:04;;;;;;;8.93;2.00;;;14.50;99.90;;;;;;5052346;28;20689;-79
2022/07/03 10:19:41;;;;;;;19.30;2.05;;;14.50;99.90;;;;;;5051719;28;20198;-79
2022/07/03 10:22:23;;;;;;;17.55;2.25;;;14.50;99.90;;;;;;5045098;28;20660;-77
2022/07/03 10:24:57;;;;;;;22.25;2.10;;;14.50;99.90;;;;;;5052962;28;20598;-80
2022/07/03 10:27:29;;;;;;;17.77;2.22;;;14.50;99.90;;;;;;5052513;28;20688;-78
2022/07/03 10:30:01;;;;;;;20.13;2.80;;;14.50;99.90;;;;;;5051594;28;20586;-79
2022/07/03 10:32:32;;;;;;;18.42;2.33;;;14.60;99.90;;;;;;5052723;28;20200;-78
2022/07/03 10:35:03;;;;;;;17.33;2.55;;;14.60;99.90;;;;;;5047538;28;20716;-82
2022/07/03 10:37:45;;;;;;;22.63;3.13;;;14.60;99.90;;;;;;5053430;28;20273;-77
2022/07/03 10:46:15;;;;;;;24.35;3.20;;;14.70;99.90;;;;;;5047416;28;20243;-79
2022/07/03 10:49:02;;;;;;;21.33;3.17;;;14.60;99.90;;;;;;5052812;28;20181;-78
2022/07/03 10:51:52;;;;;;;24.17;3.10;;;14.60;99.90;;;;;;5048781;28;20194;-79
2022/07/03 10:54:24;;;;;;;20.20;2.88;;;14.60;99.90;;;;;;5048794;28;20194;-78
2022/07/03 10:57:20;;;;;;;20.63;2.72;;;14.70;99.90;;;;;;5048074;28;20213;-76
2022/07/03 11:00:05;;;;;;;17.60;2.67;;;14.70;99.90;;;;;;5043382;28;20201;-77
2022/07/03 11:02:39;;;;;;;13.48;2.30;;;14.70;99.90;;;;;;5048754;28;20202;-77
2022/07/03 11:05:20;;;;;;;18.65;2.25;;;14.70;99.90;;;;;;5051951;28;20283;-76
2022/07/03 11:08:15;;;;;;;18.08;2.50;;;14.70;99.90;;;;;;5052983;28;20193;-79
2022/07/03 11:11:54;;;;;;;16.25;2.00;;;14.70;99.90;;;;;;5044701;28;20201;-77
2022/07/03 11:13:59;;;;;;;19.08;2.85;;;14.60;99.90;;;;;;5051103;28;20201;-78
2022/07/03 11:16:30;;;;;;;14.85;2.60;;;14.60;99.90;;;;;;5051262;28;20229;-78
2022/07/03 11:19:01;;;;;;;17.25;2.45;;;14.60;99.90;;;;;;5051093;28;20289;-77
2022/07/03 11:21:44;;;;;;;17.63;2.75;;;14.70;99.90;;;;;;5048397;28;20205;-77
2022/07/03 11:24:47;;;;;;;22.65;2.88;;;14.60;99.90;;;;;;5052317;28;20205;-77
2022/07/03 11:27:22;;;;;;;26.08;2.45;;;14.60;99.90;;;;;;5048951;28;20280;-76
2022/07/03 11:30:02;;;;;;;17.05;2.83;;;14.60;99.90;;;;;;5050867;28;20204;-77
2022/07/03 11:32:53;;;;;;;18.45;2.88;;;14.70;99.90;;;;;;5047188;28;20609;-77
2022/07/03 11:35:52;;;;;;;28.00;3.55;;;14.70;99.90;;;;;;5042213;28;20233;-78
2022/07/03 11:38:29;;;;;;;22.63;2.88;;;14.70;99.90;;;;;;5047554;28;20233;-79
2022/07/03 11:41:02;;;;;;;15.73;2.50;;;14.70;99.90;;;;;;5051012;28;20201;-77
2022/07/03 11:43:34;;;;;;;21.48;2.90;;;14.80;99.90;;;;;;5049888;28;20660;-78
2022/07/03 11:46:07;;;;;;;22.88;3.05;;;14.80;99.90;;;;;;5050333;28;20232;-79
2022/07/03 11:48:37;;;;;;;28.23;3.10;;;14.80;99.90;;;;;;5046850;28;20294;-77
2022/07/03 11:51:08;;;;;;;25.45;3.38;;;14.80;99.90;;;;;;5047494;28;20183;-77
2022/07/03 11:53:41;;;;;;;24.60;3.40;;;14.80;99.90;;;;;;5046458;28;20568;-77
2022/07/03 11:56:14;;;;;;;23.48;2.65;;;14.80;99.90;;;;;;5047212;28;20689;-77
2022/07/03 11:58:47;;;;;;;20.52;3.15;;;14.90;99.90;;;;;;5049655;28;20193;-78
2022/07/03 12:01:35;;;;;;;30.55;3.17;;;14.90;99.90;;;;;;5050468;28;20653;-77
2022/07/03 12:04:12;;;;;;;28.63;3.65;;;14.90;99.90;;;;;;5050140;28;20193;-79
2022/07/03 12:06:44;;;;;;;29.92;3.42;;;14.90;99.90;;;;;;5048180;28;20201;-77
2022/07/03 12:09:20;;;;;;;18.65;3.40;;;14.90;99.90;;;;;;5050599;28;20618;-77
2022/07/03 12:12:01;;;;;;;22.92;3.40;;;15.00;99.90;;;;;;5047233;28;20200;-79
2022/07/03 12:14:42;;;;;;;26.42;2.90;;;14.90;99.90;;;;;;5048478;28;20190;-78
2022/07/03 12:17:16;;;;;;;25.30;3.60;;;15.00;99.90;;;;;;5043454;28;20213;-77
2022/07/03 12:19:51;;;;;;;16.50;2.67;;;15.00;99.90;;;;;;5050204;28;20683;-77
2022/07/03 12:22:29;;;;;;;14.98;2.85;;;15.10;99.90;;;;;;5047302;28;20193;-79
2022/07/03 12:25:01;;;;;;;17.73;2.60;;;15.10;99.90;;;;;;5042284;28;20201;-79
2022/07/03 12:27:33;;;;;;;17.02;2.75;;;15.10;99.90;;;;;;5046197;28;20198;-78
2022/07/03 12:30:04;;;;;;;18.98;2.75;;;15.10;99.90;;;;;;5045414;28;20194;-77
2022/07/03 12:32:37;;;;;;;24.00;2.70;;;15.10;99.90;;;;;;5048503;28;20198;-84
2022/07/03 12:35:09;;;;;;;25.02;2.75;;;15.10;99.90;;;;;;5045608;28;20221;-78
2022/07/03 12:37:40;;;;;;;21.35;3.10;;;15.10;99.90;;;;;;5048653;28;20249;-78
2022/07/03 12:40:13;;;;;;;22.92;2.55;;;15.10;99.90;;;;;;5050411;28;20698;-78
2022/07/03 12:42:48;;;;;;;19.95;2.45;;;15.10;99.90;;;;;;5047870;28;20190;-80
2022/07/03 12:45:20;;;;;;;23.50;2.70;;;15.10;99.90;;;;;;5048918;28;20196;-79
2022/07/03 12:48:01;;;;;;;17.13;2.50;;;15.10;99.90;;;;;;5052146;28;20200;-79
2022/07/03 12:50:47;;;;;;;14.35;2.22;;;15.10;99.90;;;;;;5051436;28;20190;-78
2022/07/03 12:53:30;;;;;;;16.75;2.65;;;15.10;99.90;;;;;;5041222;28;20198;-78
2022/07/03 12:56:05;;;;;;;18.33;2.40;;;15.10;99.90;;;;;;5047356;28;20198;-75
2022/07/03 13:01:33;;;;;;;14.85;2.53;;;15.20;99.90;;;;;;5045441;28;20185;-78
2022/07/03 13:04:06;;;;;;;22.63;2.47;;;15.20;99.90;;;;;;5051360;28;20182;-76
2022/07/03 13:06:37;;;;;;;19.30;2.58;;;15.30;99.90;;;;;;5050852;28;20194;-77
2022/07/03 13:09:08;;;;;;;18.77;2.03;;;15.40;99.90;;;;;;5051773;28;20197;-77
2022/07/03 13:11:40;;;;;;;16.80;1.92;;;15.40;99.90;;;;;;5045710;28;20193;-77
2022/07/03 13:14:13;;;;;;;17.70;2.00;;;15.40;99.90;;;;;;5049941;28;20558;-76
2022/07/03 13:16:47;;;;;;;13.88;2.10;;;15.50;99.90;;;;;;5053529;28;20684;-78
2022/07/03 13:19:21;;;;;;;13.65;2.20;;;15.50;99.90;;;;;;5047129;28;20200;-76
2022/07/03 13:21:52;;;;;;;13.90;1.92;;;15.60;99.90;;;;;;5044750;28;20185;-76
2022/07/03 13:24:24;;;;;;;11.80;2.05;;;15.60;99.90;;;;;;5052472;28;20641;-77